Weather at Húsafell Airport

Public forecast

Using degrees Celsius for public forecast. Weather courtesy of forecast.io.

Closest aviation weather report (METAR) to Húsafell Airport

Closest report is Reykjavik Airport, 43.8 nm (81.2 km) SW. Retrieved 2021/01/23 06:00 UTC (35 minutes ago):

BIRK 230600Z 02016G29KT 350V060 9999 SCT025 BKN035 M01/M07 Q1009

Closest aviation forecast (TAF) to Húsafell Airport

Closest forecast is Reykjavik Airport, 43.8 nm (81.2 km) SW. Retrieved 2021/01/23 06:45 UTC (0 seconds ago):

TAF BIRK 230442Z 2306/2406 02022G33KT 9999 SCT025 TX00/2321Z TNM02/2309Z TEMPO 2306/2406 01028G44KT PROB40 TEMPO 2306/2309 4000 SHSN BKN014